sensor_id;sensor_type;location;lat;lon;timestamp;P1;durP1;ratioP1;P2;durP2;ratioP2
21820;SDS011;11073;48.586;12.066;2022-07-06T00:00:19;2.10;;;1.30;;
21820;SDS011;11073;48.586;12.066;2022-07-06T00:02:47;3.28;;;1.30;;
21820;SDS011;11073;48.586;12.066;2022-07-06T00:05:15;2.80;;;1.50;;
21820;SDS011;11073;48.586;12.066;2022-07-06T00:07:44;3.83;;;1.30;;
21820;SDS011;11073;48.586;12.066;2022-07-06T00:10:14;2.78;;;1.27;;
21820;SDS011;11073;48.586;12.066;2022-07-06T00:12:42;1.65;;;1.35;;
21820;SDS011;11073;48.586;12.066;2022-07-06T00:15:11;4.97;;;1.50;;
21820;SDS011;11073;48.586;12.066;2022-07-06T00:17:39;2.33;;;1.67;;
21820;SDS011;11073;48.586;12.066;2022-07-06T00:20:08;2.15;;;1.27;;
21820;SDS011;11073;48.586;12.066;2022-07-06T00:22:37;6.65;;;1.30;;
21820;SDS011;11073;48.586;12.066;2022-07-06T00:25:06;1.60;;;1.10;;
21820;SDS011;11073;48.586;12.066;2022-07-06T00:27:37;1.92;;;1.40;;
21820;SDS011;11073;48.586;12.066;2022-07-06T00:30:07;3.47;;;1.60;;
21820;SDS011;11073;48.586;12.066;2022-07-06T00:32:36;3.22;;;1.08;;
21820;SDS011;11073;48.586;12.066;2022-07-06T00:35:05;2.78;;;1.30;;
21820;SDS011;11073;48.586;12.066;2022-07-06T00:37:34;3.72;;;1.38;;
21820;SDS011;11073;48.586;12.066;2022-07-06T00:40:03;2.97;;;1.30;;
21820;SDS011;11073;48.586;12.066;2022-07-06T00:42:39;3.00;;;1.50;;
21820;SDS011;11073;48.586;12.066;2022-07-06T00:45:09;3.20;;;1.40;;
21820;SDS011;11073;48.586;12.066;2022-07-06T00:47:38;3.95;;;1.50;;
21820;SDS011;11073;48.586;12.066;2022-07-06T00:50:08;1.98;;;1.58;;
21820;SDS011;11073;48.586;12.066;2022-07-06T00:52:42;1.92;;;1.30;;
21820;SDS011;11073;48.586;12.066;2022-07-06T00:55:13;3.97;;;1.20;;
21820;SDS011;11073;48.586;12.066;2022-07-06T00:57:44;1.98;;;1.17;;
21820;SDS011;11073;48.586;12.066;2022-07-06T01:00:13;2.55;;;1.25;;
21820;SDS011;11073;48.586;12.066;2022-07-06T01:02:43;5.22;;;1.40;;
21820;SDS011;11073;48.586;12.066;2022-07-06T01:05:13;1.83;;;1.38;;
21820;SDS011;11073;48.586;12.066;2022-07-06T01:07:44;1.63;;;1.20;;
21820;SDS011;11073;48.586;12.066;2022-07-06T01:10:14;5.68;;;1.38;;
21820;SDS011;11073;48.586;12.066;2022-07-06T01:12:46;2.58;;;1.60;;
21820;SDS011;11073;48.586;12.066;2022-07-06T01:15:16;2.10;;;1.15;;
21820;SDS011;11073;48.586;12.066;2022-07-06T01:17:46;2.40;;;1.25;;
21820;SDS011;11073;48.586;12.066;2022-07-06T01:20:18;2.78;;;1.20;;
21820;SDS011;11073;48.586;12.066;2022-07-06T01:22:49;4.70;;;1.42;;
21820;SDS011;11073;48.586;12.066;2022-07-06T01:25:19;3.63;;;1.33;;
21820;SDS011;11073;48.586;12.066;2022-07-06T01:27:48;2.30;;;1.50;;
21820;SDS011;11073;48.586;12.066;2022-07-06T01:30:18;3.38;;;1.38;;
21820;SDS011;11073;48.586;12.066;2022-07-06T01:32:47;4.70;;;1.40;;
21820;SDS011;11073;48.586;12.066;2022-07-06T01:35:17;1.58;;;1.27;;
21820;SDS011;11073;48.586;12.066;2022-07-06T01:37:47;4.47;;;1.25;;
21820;SDS011;11073;48.586;12.066;2022-07-06T01:40:15;1.75;;;1.33;;
21820;SDS011;11073;48.586;12.066;2022-07-06T01:42:44;4.03;;;1.30;;
21820;SDS011;11073;48.586;12.066;2022-07-06T01:45:13;1.50;;;1.27;;
21820;SDS011;11073;48.586;12.066;2022-07-06T01:47:42;2.47;;;1.55;;
21820;SDS011;11073;48.586;12.066;2022-07-06T01:50:10;1.45;;;1.20;;
21820;SDS011;11073;48.586;12.066;2022-07-06T01:52:46;3.15;;;1.30;;
21820;SDS011;11073;48.586;12.066;2022-07-06T01:55:14;3.55;;;1.42;;
21820;SDS011;11073;48.586;12.066;2022-07-06T01:57:44;2.03;;;1.13;;
21820;SDS011;11073;48.586;12.066;2022-07-06T02:00:13;4.57;;;1.50;;
21820;SDS011;11073;48.586;12.066;2022-07-06T02:02:47;2.42;;;1.15;;
21820;SDS011;11073;48.586;12.066;2022-07-06T02:05:15;3.72;;;1.58;;
21820;SDS011;11073;48.586;12.066;2022-07-06T02:07:45;2.22;;;1.60;;
21820;SDS011;11073;48.586;12.066;2022-07-06T02:10:14;3.35;;;1.58;;
21820;SDS011;11073;48.586;12.066;2022-07-06T02:12:43;2.67;;;1.65;;
21820;SDS011;11073;48.586;12.066;2022-07-06T02:15:12;2.42;;;1.30;;
21820;SDS011;11073;48.586;12.066;2022-07-06T02:17:41;2.88;;;1.50;;
21820;SDS011;11073;48.586;12.066;2022-07-06T02:20:10;2.15;;;1.20;;
21820;SDS011;11073;48.586;12.066;2022-07-06T02:22:39;3.05;;;1.67;;
21820;SDS011;11073;48.586;12.066;2022-07-06T02:25:09;2.85;;;1.50;;
21820;SDS011;11073;48.586;12.066;2022-07-06T02:27:39;3.08;;;1.65;;
21820;SDS011;11073;48.586;12.066;2022-07-06T02:30:10;2.95;;;1.40;;
21820;SDS011;11073;48.586;12.066;2022-07-06T02:32:40;5.22;;;1.70;;
21820;SDS011;11073;48.586;12.066;2022-07-06T02:35:09;3.40;;;1.58;;
21820;SDS011;11073;48.586;12.066;2022-07-06T02:37:39;3.90;;;1.95;;
21820;SDS011;11073;48.586;12.066;2022-07-06T02:40:10;3.78;;;1.30;;
21820;SDS011;11073;48.586;12.066;2022-07-06T02:42:39;1.65;;;1.23;;
21820;SDS011;11073;48.586;12.066;2022-07-06T02:45:09;2.03;;;1.50;;
21820;SDS011;11073;48.586;12.066;2022-07-06T02:47:38;3.75;;;1.27;;
21820;SDS011;11073;48.586;12.066;2022-07-06T02:50:08;2.38;;;1.63;;
21820;SDS011;11073;48.586;12.066;2022-07-06T02:52:36;4.18;;;1.55;;
21820;SDS011;11073;48.586;12.066;2022-07-06T02:55:10;2.00;;;1.25;;
21820;SDS011;11073;48.586;12.066;2022-07-06T02:57:40;4.47;;;1.67;;
21820;SDS011;11073;48.586;12.066;2022-07-06T03:00:11;2.95;;;1.58;;
21820;SDS011;11073;48.586;12.066;2022-07-06T03:02:40;3.13;;;1.35;;
21820;SDS011;11073;48.586;12.066;2022-07-06T03:05:10;4.00;;;1.27;;
21820;SDS011;11073;48.586;12.066;2022-07-06T03:07:39;3.60;;;1.70;;
21820;SDS011;11073;48.586;12.066;2022-07-06T03:10:08;2.65;;;1.40;;
21820;SDS011;11073;48.586;12.066;2022-07-06T03:12:38;4.47;;;1.90;;
21820;SDS011;11073;48.586;12.066;2022-07-06T03:15:08;1.77;;;1.38;;
21820;SDS011;11073;48.586;12.066;2022-07-06T03:17:39;2.88;;;1.50;;
21820;SDS011;11073;48.586;12.066;2022-07-06T03:20:09;3.25;;;1.50;;
21820;SDS011;11073;48.586;12.066;2022-07-06T03:22:39;1.92;;;1.40;;
21820;SDS011;11073;48.586;12.066;2022-07-06T03:25:10;3.03;;;1.58;;
21820;SDS011;11073;48.586;12.066;2022-07-06T03:27:41;3.00;;;1.55;;
21820;SDS011;11073;48.586;12.066;2022-07-06T03:30:12;4.47;;;1.55;;
21820;SDS011;11073;48.586;12.066;2022-07-06T03:32:47;2.22;;;1.63;;
21820;SDS011;11073;48.586;12.066;2022-07-06T03:35:18;3.30;;;1.42;;
21820;SDS011;11073;48.586;12.066;2022-07-06T03:37:50;4.20;;;1.70;;
21820;SDS011;11073;48.586;12.066;2022-07-06T03:40:20;5.70;;;1.70;;
21820;SDS011;11073;48.586;12.066;2022-07-06T03:42:52;2.60;;;1.40;;
21820;SDS011;11073;48.586;12.066;2022-07-06T03:45:21;2.03;;;1.65;;
21820;SDS011;11073;48.586;12.066;2022-07-06T03:47:50;2.30;;;1.90;;
21820;SDS011;11073;48.586;12.066;2022-07-06T03:50:20;2.55;;;1.70;;
21820;SDS011;11073;48.586;12.066;2022-07-06T03:52:49;4.00;;;1.80;;
21820;SDS011;11073;48.586;12.066;2022-07-06T03:55:18;2.25;;;1.42;;
21820;SDS011;11073;48.586;12.066;2022-07-06T03:57:53;5.93;;;1.50;;
21820;SDS011;11073;48.586;12.066;2022-07-06T04:00:23;4.00;;;1.52;;
21820;SDS011;11073;48.586;12.066;2022-07-06T04:02:59;2.78;;;1.52;;
21820;SDS011;11073;48.586;12.066;2022-07-06T04:05:32;1.30;;;1.20;;
21820;SDS011;11073;48.586;12.066;2022-07-06T04:08:01;2.80;;;1.67;;
21820;SDS011;11073;48.586;12.066;2022-07-06T04:10:36;3.70;;;1.60;;
21820;SDS011;11073;48.586;12.066;2022-07-06T04:13:07;3.95;;;1.65;;
21820;SDS011;11073;48.586;12.066;2022-07-06T04:15:36;1.85;;;1.50;;
21820;SDS011;11073;48.586;12.066;2022-07-06T04:18:05;2.40;;;1.60;;
21820;SDS011;11073;48.586;12.066;2022-07-06T04:20:41;1.98;;;1.60;;
21820;SDS011;11073;48.586;12.066;2022-07-06T04:23:10;3.20;;;1.67;;
21820;SDS011;11073;48.586;12.066;2022-07-06T04:25:39;2.50;;;1.65;;
21820;SDS011;11073;48.586;12.066;2022-07-06T04:28:10;2.25;;;1.60;;
21820;SDS011;11073;48.586;12.066;2022-07-06T04:30:39;2.00;;;1.50;;
21820;SDS011;11073;48.586;12.066;2022-07-06T04:33:11;7.43;;;1.55;;
21820;SDS011;11073;48.586;12.066;2022-07-06T04:35:43;1.52;;;1.23;;
21820;SDS011;11073;48.586;12.066;2022-07-06T04:38:12;5.03;;;1.65;;
21820;SDS011;11073;48.586;12.066;2022-07-06T04:40:42;4.50;;;1.52;;
21820;SDS011;11073;48.586;12.066;2022-07-06T04:43:18;3.58;;;1.50;;
21820;SDS011;11073;48.586;12.066;2022-07-06T04:45:46;2.45;;;1.52;;
21820;SDS011;11073;48.586;12.066;2022-07-06T04:48:15;6.03;;;1.90;;
21820;SDS011;11073;48.586;12.066;2022-07-06T04:50:44;4.70;;;1.83;;
21820;SDS011;11073;48.586;12.066;2022-07-06T04:53:19;2.53;;;1.52;;
21820;SDS011;11073;48.586;12.066;2022-07-06T04:55:48;2.45;;;1.70;;
21820;SDS011;11073;48.586;12.066;2022-07-06T04:58:18;6.53;;;2.00;;
21820;SDS011;11073;48.586;12.066;2022-07-06T05:00:48;3.42;;;1.70;;
21820;SDS011;11073;48.586;12.066;2022-07-06T05:03:16;4.43;;;1.50;;
21820;SDS011;11073;48.586;12.066;2022-07-06T05:05:45;2.38;;;1.50;;
21820;SDS011;11073;48.586;12.066;2022-07-06T05:08:15;2.63;;;1.60;;
21820;SDS011;11073;48.586;12.066;2022-07-06T05:10:44;2.83;;;1.80;;
21820;SDS011;11073;48.586;12.066;2022-07-06T05:13:13;1.90;;;1.63;;
21820;SDS011;11073;48.586;12.066;2022-07-06T05:15:44;4.22;;;2.13;;
21820;SDS011;11073;48.586;12.066;2022-07-06T05:18:14;3.20;;;1.95;;
21820;SDS011;11073;48.586;12.066;2022-07-06T05:20:43;3.28;;;1.70;;
21820;SDS011;11073;48.586;12.066;2022-07-06T05:23:13;4.18;;;1.80;;
21820;SDS011;11073;48.586;12.066;2022-07-06T05:25:42;4.10;;;1.67;;
21820;SDS011;11073;48.586;12.066;2022-07-06T05:28:11;4.20;;;1.52;;
21820;SDS011;11073;48.586;12.066;2022-07-06T05:30:40;5.78;;;1.65;;
21820;SDS011;11073;48.586;12.066;2022-07-06T05:33:11;3.08;;;1.77;;
21820;SDS011;11073;48.586;12.066;2022-07-06T05:35:40;2.42;;;1.77;;
21820;SDS011;11073;48.586;12.066;2022-07-06T05:38:24;3.47;;;1.67;;
21820;SDS011;11073;48.586;12.066;2022-07-06T05:40:54;3.20;;;1.77;;
21820;SDS011;11073;48.586;12.066;2022-07-06T05:43:23;6.72;;;1.75;;
21820;SDS011;11073;48.586;12.066;2022-07-06T05:45:54;2.55;;;1.67;;
21820;SDS011;11073;48.586;12.066;2022-07-06T05:48:29;3.47;;;2.10;;
21820;SDS011;11073;48.586;12.066;2022-07-06T05:51:15;3.22;;;1.85;;
21820;SDS011;11073;48.586;12.066;2022-07-06T05:53:45;3.15;;;2.00;;
21820;SDS011;11073;48.586;12.066;2022-07-06T05:56:14;4.45;;;2.00;;
21820;SDS011;11073;48.586;12.066;2022-07-06T05:58:43;3.47;;;2.05;;
21820;SDS011;11073;48.586;12.066;2022-07-06T06:01:11;4.28;;;2.00;;
21820;SDS011;11073;48.586;12.066;2022-07-06T06:03:46;2.90;;;1.90;;
21820;SDS011;11073;48.586;12.066;2022-07-06T06:06:15;4.25;;;2.20;;
21820;SDS011;11073;48.586;12.066;2022-07-06T06:08:44;2.20;;;1.70;;
21820;SDS011;11073;48.586;12.066;2022-07-06T06:11:12;2.83;;;1.50;;
21820;SDS011;11073;48.586;12.066;2022-07-06T06:13:41;2.95;;;1.52;;
21820;SDS011;11073;48.586;12.066;2022-07-06T06:16:10;4.78;;;1.80;;
21820;SDS011;11073;48.586;12.066;2022-07-06T06:18:40;4.63;;;1.65;;
21820;SDS011;11073;48.586;12.066;2022-07-06T06:21:10;4.88;;;1.77;;
21820;SDS011;11073;48.586;12.066;2022-07-06T06:23:39;3.45;;;1.92;;
21820;SDS011;11073;48.586;12.066;2022-07-06T06:26:07;3.38;;;2.10;;
21820;SDS011;11073;48.586;12.066;2022-07-06T06:28:36;3.17;;;1.60;;
21820;SDS011;11073;48.586;12.066;2022-07-06T06:31:05;3.47;;;1.90;;
21820;SDS011;11073;48.586;12.066;2022-07-06T06:33:34;3.42;;;1.80;;
21820;SDS011;11073;48.586;12.066;2022-07-06T06:36:03;10.25;;;2.40;;
21820;SDS011;11073;48.586;12.066;2022-07-06T06:38:33;4.18;;;1.80;;
21820;SDS011;11073;48.586;12.066;2022-07-06T06:41:01;3.83;;;1.80;;
21820;SDS011;11073;48.586;12.066;2022-07-06T06:43:30;3.25;;;1.80;;
21820;SDS011;11073;48.586;12.066;2022-07-06T06:46:11;3.67;;;1.95;;
21820;SDS011;11073;48.586;12.066;2022-07-06T06:48:39;4.28;;;1.77;;
21820;SDS011;11073;48.586;12.066;2022-07-06T06:51:08;3.22;;;1.88;;
21820;SDS011;11073;48.586;12.066;2022-07-06T06:53:38;5.63;;;2.17;;
21820;SDS011;11073;48.586;12.066;2022-07-06T06:56:07;4.28;;;2.03;;
21820;SDS011;11073;48.586;12.066;2022-07-06T06:58:36;3.45;;;1.88;;
21820;SDS011;11073;48.586;12.066;2022-07-06T07:01:26;4.25;;;1.77;;
21820;SDS011;11073;48.586;12.066;2022-07-06T07:03:55;4.35;;;1.80;;
21820;SDS011;11073;48.586;12.066;2022-07-06T07:06:24;4.38;;;2.05;;
21820;SDS011;11073;48.586;12.066;2022-07-06T07:08:54;7.55;;;2.00;;
21820;SDS011;11073;48.586;12.066;2022-07-06T07:11:23;2.70;;;1.77;;
21820;SDS011;11073;48.586;12.066;2022-07-06T07:13:52;2.13;;;1.55;;
21820;SDS011;11073;48.586;12.066;2022-07-06T07:16:20;3.83;;;2.13;;
21820;SDS011;11073;48.586;12.066;2022-07-06T07:18:51;3.67;;;1.70;;
21820;SDS011;11073;48.586;12.066;2022-07-06T07:21:20;3.67;;;1.70;;
21820;SDS011;11073;48.586;12.066;2022-07-06T07:23:48;3.42;;;2.10;;
21820;SDS011;11073;48.586;12.066;2022-07-06T07:26:19;2.38;;;1.60;;
21820;SDS011;11073;48.586;12.066;2022-07-06T07:28:47;2.50;;;1.60;;
21820;SDS011;11073;48.586;12.066;2022-07-06T07:31:16;3.55;;;2.00;;
21820;SDS011;11073;48.586;12.066;2022-07-06T07:33:45;5.50;;;1.85;;
21820;SDS011;11073;48.586;12.066;2022-07-06T07:36:14;5.85;;;1.95;;
21820;SDS011;11073;48.586;12.066;2022-07-06T07:38:42;4.60;;;1.80;;
21820;SDS011;11073;48.586;12.066;2022-07-06T07:41:11;4.03;;;1.65;;
21820;SDS011;11073;48.586;12.066;2022-07-06T07:43:42;4.35;;;1.88;;
21820;SDS011;11073;48.586;12.066;2022-07-06T07:46:11;3.78;;;2.03;;
21820;SDS011;11073;48.586;12.066;2022-07-06T07:48:39;3.70;;;1.80;;
21820;SDS011;11073;48.586;12.066;2022-07-06T07:51:08;4.45;;;1.90;;
21820;SDS011;11073;48.586;12.066;2022-07-06T07:53:37;2.72;;;1.77;;
21820;SDS011;11073;48.586;12.066;2022-07-06T07:56:06;3.33;;;1.88;;
21820;SDS011;11073;48.586;12.066;2022-07-06T07:58:35;2.90;;;1.65;;
21820;SDS011;11073;48.586;12.066;2022-07-06T08:01:05;5.65;;;2.00;;
21820;SDS011;11073;48.586;12.066;2022-07-06T08:03:34;4.63;;;1.90;;
21820;SDS011;11073;48.586;12.066;2022-07-06T08:06:03;3.15;;;1.70;;
21820;SDS011;11073;48.586;12.066;2022-07-06T08:08:32;2.90;;;1.60;;
21820;SDS011;11073;48.586;12.066;2022-07-06T08:11:01;3.17;;;1.65;;
21820;SDS011;11073;48.586;12.066;2022-07-06T08:13:45;4.82;;;1.80;;
21820;SDS011;11073;48.586;12.066;2022-07-06T08:16:15;2.47;;;1.85;;
21820;SDS011;11073;48.586;12.066;2022-07-06T08:18:44;3.97;;;1.80;;
21820;SDS011;11073;48.586;12.066;2022-07-06T08:21:13;3.22;;;1.55;;
21820;SDS011;11073;48.586;12.066;2022-07-06T08:23:52;3.47;;;1.67;;
21820;SDS011;11073;48.586;12.066;2022-07-06T08:26:22;4.57;;;1.63;;
21820;SDS011;11073;48.586;12.066;2022-07-06T08:28:51;3.60;;;1.40;;
21820;SDS011;11073;48.586;12.066;2022-07-06T08:31:21;4.93;;;1.88;;
21820;SDS011;11073;48.586;12.066;2022-07-06T08:34:10;4.95;;;1.70;;
21820;SDS011;11073;48.586;12.066;2022-07-06T08:36:39;4.30;;;1.75;;
21820;SDS011;11073;48.586;12.066;2022-07-06T08:39:08;3.40;;;1.88;;
21820;SDS011;11073;48.586;12.066;2022-07-06T08:41:36;5.07;;;1.70;;
21820;SDS011;11073;48.586;12.066;2022-07-06T08:44:08;3.92;;;1.80;;
21820;SDS011;11073;48.586;12.066;2022-07-06T08:46:38;3.70;;;1.90;;
21820;SDS011;11073;48.586;12.066;2022-07-06T08:49:12;4.95;;;1.70;;
21820;SDS011;11073;48.586;12.066;2022-07-06T08:51:43;3.75;;;1.70;;
21820;SDS011;11073;48.586;12.066;2022-07-06T08:54:13;5.57;;;1.85;;
21820;SDS011;11073;48.586;12.066;2022-07-06T08:56:43;5.97;;;1.83;;
21820;SDS011;11073;48.586;12.066;2022-07-06T08:59:14;3.42;;;1.67;;
21820;SDS011;11073;48.586;12.066;2022-07-06T09:01:45;4.95;;;1.83;;
21820;SDS011;11073;48.586;12.066;2022-07-06T09:04:15;5.40;;;1.70;;
21820;SDS011;11073;48.586;12.066;2022-07-06T09:06:46;3.50;;;1.90;;
21820;SDS011;11073;48.586;12.066;2022-07-06T09:09:16;5.63;;;2.17;;
21820;SDS011;11073;48.586;12.066;2022-07-06T09:11:48;2.72;;;1.67;;
21820;SDS011;11073;48.586;12.066;2022-07-06T09:14:17;2.92;;;1.70;;
21820;SDS011;11073;48.586;12.066;2022-07-06T09:16:51;2.67;;;2.08;;
21820;SDS011;11073;48.586;12.066;2022-07-06T09:19:21;5.07;;;2.10;;
21820;SDS011;11073;48.586;12.066;2022-07-06T09:21:49;2.10;;;1.65;;
21820;SDS011;11073;48.586;12.066;2022-07-06T09:24:18;4.25;;;1.50;;
21820;SDS011;11073;48.586;12.066;2022-07-06T09:26:47;6.18;;;1.88;;
21820;SDS011;11073;48.586;12.066;2022-07-06T09:29:16;3.83;;;1.92;;
21820;SDS011;11073;48.586;12.066;2022-07-06T09:31:57;2.40;;;1.75;;
21820;SDS011;11073;48.586;12.066;2022-07-06T09:34:39;7.13;;;1.95;;
21820;SDS011;11073;48.586;12.066;2022-07-06T09:37:10;2.80;;;1.60;;
21820;SDS011;11073;48.586;12.066;2022-07-06T09:39:39;3.88;;;1.70;;
21820;SDS011;11073;48.586;12.066;2022-07-06T09:42:08;3.08;;;1.60;;
21820;SDS011;11073;48.586;12.066;2022-07-06T09:44:37;5.38;;;1.60;;
21820;SDS011;11073;48.586;12.066;2022-07-06T09:47:09;3.20;;;1.55;;
21820;SDS011;11073;48.586;12.066;2022-07-06T09:49:39;3.00;;;1.65;;
21820;SDS011;11073;48.586;12.066;2022-07-06T09:52:09;7.78;;;1.80;;
21820;SDS011;11073;48.586;12.066;2022-07-06T09:54:39;2.38;;;1.67;;
21820;SDS011;11073;48.586;12.066;2022-07-06T09:57:08;3.15;;;1.85;;
21820;SDS011;11073;48.586;12.066;2022-07-06T09:59:37;4.63;;;1.63;;
21820;SDS011;11073;48.586;12.066;2022-07-06T10:02:06;3.10;;;1.60;;
21820;SDS011;11073;48.586;12.066;2022-07-06T10:04:37;5.18;;;2.00;;
21820;SDS011;11073;48.586;12.066;2022-07-06T10:07:06;5.88;;;1.92;;
21820;SDS011;11073;48.586;12.066;2022-07-06T10:09:35;3.83;;;1.70;;
21820;SDS011;11073;48.586;12.066;2022-07-06T10:12:06;5.70;;;1.95;;
21820;SDS011;11073;48.586;12.066;2022-07-06T10:14:40;2.75;;;1.60;;
21820;SDS011;11073;48.586;12.066;2022-07-06T10:17:18;5.07;;;1.60;;
21820;SDS011;11073;48.586;12.066;2022-07-06T10:19:49;4.90;;;1.90;;
21820;SDS011;11073;48.586;12.066;2022-07-06T10:22:18;4.65;;;1.90;;
21820;SDS011;11073;48.586;12.066;2022-07-06T10:24:47;4.35;;;1.80;;
21820;SDS011;11073;48.586;12.066;2022-07-06T10:27:18;4.80;;;2.13;;
21820;SDS011;11073;48.586;12.066;2022-07-06T10:29:47;5.25;;;1.58;;
21820;SDS011;11073;48.586;12.066;2022-07-06T10:32:16;4.55;;;1.65;;
21820;SDS011;11073;48.586;12.066;2022-07-06T10:34:46;1.88;;;1.60;;
21820;SDS011;11073;48.586;12.066;2022-07-06T10:37:23;4.68;;;1.40;;
21820;SDS011;11073;48.586;12.066;2022-07-06T10:39:53;3.05;;;1.90;;
21820;SDS011;11073;48.586;12.066;2022-07-06T10:42:40;2.28;;;1.70;;
21820;SDS011;11073;48.586;12.066;2022-07-06T10:45:13;2.80;;;1.60;;
21820;SDS011;11073;48.586;12.066;2022-07-06T10:47:43;2.45;;;1.45;;
21820;SDS011;11073;48.586;12.066;2022-07-06T10:50:12;4.75;;;1.67;;
21820;SDS011;11073;48.586;12.066;2022-07-06T10:52:48;1.83;;;1.40;;
21820;SDS011;11073;48.586;12.066;2022-07-06T10:55:27;4.88;;;1.65;;
21820;SDS011;11073;48.586;12.066;2022-07-06T10:57:57;3.63;;;1.83;;
21820;SDS011;11073;48.586;12.066;2022-07-06T11:00:26;2.13;;;1.60;;
21820;SDS011;11073;48.586;12.066;2022-07-06T11:06:07;2.97;;;1.58;;
21820;SDS011;11073;48.586;12.066;2022-07-06T11:08:47;4.65;;;1.60;;
21820;SDS011;11073;48.586;12.066;2022-07-06T11:11:19;5.13;;;1.92;;
21820;SDS011;11073;48.586;12.066;2022-07-06T11:13:49;1.60;;;1.50;;
21820;SDS011;11073;48.586;12.066;2022-07-06T11:16:20;3.38;;;1.90;;
21820;SDS011;11073;48.586;12.066;2022-07-06T11:18:59;3.05;;;1.90;;
21820;SDS011;11073;48.586;12.066;2022-07-06T11:21:33;3.75;;;1.50;;
21820;SDS011;11073;48.586;12.066;2022-07-06T11:24:06;8.43;;;1.88;;
21820;SDS011;11073;48.586;12.066;2022-07-06T11:26:36;4.10;;;1.92;;
21820;SDS011;11073;48.586;12.066;2022-07-06T11:29:07;3.17;;;1.65;;
21820;SDS011;11073;48.586;12.066;2022-07-06T11:31:38;2.92;;;1.80;;
21820;SDS011;11073;48.586;12.066;2022-07-06T11:34:08;4.32;;;1.75;;
21820;SDS011;11073;48.586;12.066;2022-07-06T11:36:38;2.55;;;1.60;;
21820;SDS011;11073;48.586;12.066;2022-07-06T11:39:14;3.80;;;1.73;;
21820;SDS011;11073;48.586;12.066;2022-07-06T11:41:43;4.03;;;1.75;;
21820;SDS011;11073;48.586;12.066;2022-07-06T11:44:17;2.47;;;1.65;;
21820;SDS011;11073;48.586;12.066;2022-07-06T11:46:47;5.97;;;1.83;;
21820;SDS011;11073;48.586;12.066;2022-07-06T11:49:17;2.58;;;1.80;;
21820;SDS011;11073;48.586;12.066;2022-07-06T11:51:46;5.95;;;1.77;;
21820;SDS011;11073;48.586;12.066;2022-07-06T11:54:16;3.40;;;1.90;;
21820;SDS011;11073;48.586;12.066;2022-07-06T11:56:47;2.65;;;1.42;;
21820;SDS011;11073;48.586;12.066;2022-07-06T11:59:19;3.95;;;1.52;;
21820;SDS011;11073;48.586;12.066;2022-07-06T12:01:50;5.80;;;2.08;;
21820;SDS011;11073;48.586;12.066;2022-07-06T12:04:25;5.50;;;1.60;;
21820;SDS011;11073;48.586;12.066;2022-07-06T12:06:55;3.13;;;1.50;;
21820;SDS011;11073;48.586;12.066;2022-07-06T12:09:30;2.92;;;1.40;;
21820;SDS011;11073;48.586;12.066;2022-07-06T12:11:59;3.35;;;1.50;;
21820;SDS011;11073;48.586;12.066;2022-07-06T12:14:30;5.10;;;1.60;;
21820;SDS011;11073;48.586;12.066;2022-07-06T12:17:02;3.13;;;1.48;;
21820;SDS011;11073;48.586;12.066;2022-07-06T12:19:32;3.13;;;1.38;;
21820;SDS011;11073;48.586;12.066;2022-07-06T12:22:01;6.13;;;1.70;;
21820;SDS011;11073;48.586;12.066;2022-07-06T12:24:33;5.20;;;1.70;;
21820;SDS011;11073;48.586;12.066;2022-07-06T12:27:09;3.30;;;1.60;;
21820;SDS011;11073;48.586;12.066;2022-07-06T12:29:39;3.08;;;1.55;;
21820;SDS011;11073;48.586;12.066;2022-07-06T12:32:13;1.65;;;1.20;;
21820;SDS011;11073;48.586;12.066;2022-07-06T12:34:42;2.33;;;1.50;;
21820;SDS011;11073;48.586;12.066;2022-07-06T12:37:12;1.65;;;1.33;;
21820;SDS011;11073;48.586;12.066;2022-07-06T12:39:43;2.65;;;1.70;;
21820;SDS011;11073;48.586;12.066;2022-07-06T12:42:13;3.28;;;1.40;;
21820;SDS011;11073;48.586;12.066;2022-07-06T12:44:47;4.40;;;1.50;;
21820;SDS011;11073;48.586;12.066;2022-07-06T12:47:17;2.22;;;1.30;;
21820;SDS011;11073;48.586;12.066;2022-07-06T12:49:48;2.20;;;1.35;;
21820;SDS011;11073;48.586;12.066;2022-07-06T12:52:32;2.63;;;1.58;;
21820;SDS011;11073;48.586;12.066;2022-07-06T12:55:02;2.78;;;1.33;;
21820;SDS011;11073;48.586;12.066;2022-07-06T12:57:42;2.97;;;1.10;;
21820;SDS011;11073;48.586;12.066;2022-07-06T13:00:12;4.60;;;1.83;;
21820;SDS011;11073;48.586;12.066;2022-07-06T13:02:43;3.95;;;1.58;;
21820;SDS011;11073;48.586;12.066;2022-07-06T13:05:32;1.45;;;1.20;;
21820;SDS011;11073;48.586;12.066;2022-07-06T13:08:02;2.03;;;1.38;;
21820;SDS011;11073;48.586;12.066;2022-07-06T13:10:33;2.10;;;0.98;;
21820;SDS011;11073;48.586;12.066;2022-07-06T13:13:03;1.20;;;1.00;;
21820;SDS011;11073;48.586;12.066;2022-07-06T13:15:31;3.13;;;1.10;;
21820;SDS011;11073;48.586;12.066;2022-07-06T13:18:00;1.98;;;1.25;;
21820;SDS011;11073;48.586;12.066;2022-07-06T13:20:28;3.97;;;1.60;;
21820;SDS011;11073;48.586;12.066;2022-07-06T13:22:57;3.08;;;1.20;;
21820;SDS011;11073;48.586;12.066;2022-07-06T13:25:25;3.22;;;1.33;;
21820;SDS011;11073;48.586;12.066;2022-07-06T13:27:56;3.28;;;1.13;;
21820;SDS011;11073;48.586;12.066;2022-07-06T13:30:24;3.97;;;1.33;;
21820;SDS011;11073;48.586;12.066;2022-07-06T13:32:53;2.40;;;1.20;;
21820;SDS011;11073;48.586;12.066;2022-07-06T13:35:23;1.45;;;0.98;;
21820;SDS011;11073;48.586;12.066;2022-07-06T13:37:52;1.83;;;0.90;;
21820;SDS011;11073;48.586;12.066;2022-07-06T13:40:20;1.98;;;1.00;;
21820;SDS011;11073;48.586;12.066;2022-07-06T13:42:49;1.38;;;1.10;;
21820;SDS011;11073;48.586;12.066;2022-07-06T13:45:22;2.00;;;1.10;;
21820;SDS011;11073;48.586;12.066;2022-07-06T13:47:51;1.17;;;0.77;;
21820;SDS011;11073;48.586;12.066;2022-07-06T13:50:19;3.65;;;1.08;;
21820;SDS011;11073;48.586;12.066;2022-07-06T13:52:48;3.63;;;1.20;;
21820;SDS011;11073;48.586;12.066;2022-07-06T13:55:16;2.45;;;1.02;;
21820;SDS011;11073;48.586;12.066;2022-07-06T13:57:45;1.70;;;1.10;;
21820;SDS011;11073;48.586;12.066;2022-07-06T14:00:15;4.93;;;1.10;;
21820;SDS011;11073;48.586;12.066;2022-07-06T14:02:46;7.95;;;1.27;;
21820;SDS011;11073;48.586;12.066;2022-07-06T14:05:15;3.00;;;0.82;;
21820;SDS011;11073;48.586;12.066;2022-07-06T14:07:44;4.55;;;0.90;;
21820;SDS011;11073;48.586;12.066;2022-07-06T14:10:13;5.43;;;1.20;;
21820;SDS011;11073;48.586;12.066;2022-07-06T14:12:42;2.55;;;0.93;;
21820;SDS011;11073;48.586;12.066;2022-07-06T14:15:10;1.75;;;1.10;;
21820;SDS011;11073;48.586;12.066;2022-07-06T14:17:39;1.83;;;1.00;;
21820;SDS011;11073;48.586;12.066;2022-07-06T14:20:10;2.58;;;0.85;;
21820;SDS011;11073;48.586;12.066;2022-07-06T14:22:39;3.53;;;1.05;;
21820;SDS011;11073;48.586;12.066;2022-07-06T14:25:08;1.25;;;0.98;;
21820;SDS011;11073;48.586;12.066;2022-07-06T14:27:37;2.72;;;1.10;;
21820;SDS011;11073;48.586;12.066;2022-07-06T14:30:08;1.70;;;1.00;;
21820;SDS011;11073;48.586;12.066;2022-07-06T14:32:37;1.15;;;1.00;;
21820;SDS011;11073;48.586;12.066;2022-07-06T14:35:06;1.67;;;1.05;;
21820;SDS011;11073;48.586;12.066;2022-07-06T14:37:36;1.52;;;0.90;;
21820;SDS011;11073;48.586;12.066;2022-07-06T14:40:05;6.82;;;1.10;;
21820;SDS011;11073;48.586;12.066;2022-07-06T14:42:34;1.40;;;0.93;;
21820;SDS011;11073;48.586;12.066;2022-07-06T14:45:03;1.33;;;0.93;;
21820;SDS011;11073;48.586;12.066;2022-07-06T14:47:32;1.05;;;0.90;;
21820;SDS011;11073;48.586;12.066;2022-07-06T14:50:00;2.50;;;1.08;;
21820;SDS011;11073;48.586;12.066;2022-07-06T14:52:28;2.10;;;0.90;;
21820;SDS011;11073;48.586;12.066;2022-07-06T14:54:58;5.05;;;1.10;;